sensor_id;sensor_type;location;lat;lon;timestamp;temperature;humidity
67188;DHT22;54117;53.532;49.426;2022-08-03T00:02:03;18.80;89.70
67188;DHT22;54117;53.532;49.426;2022-08-03T00:04:30;18.80;88.80
67188;DHT22;54117;53.532;49.426;2022-08-03T00:06:56;18.80;89.50
67188;DHT22;54117;53.532;49.426;2022-08-03T00:09:22;18.80;88.60
67188;DHT22;54117;53.532;49.426;2022-08-03T00:11:48;18.90;88.70
67188;DHT22;54117;53.532;49.426;2022-08-03T00:14:15;18.80;88.90
67188;DHT22;54117;53.532;49.426;2022-08-03T00:16:41;18.80;89.10
67188;DHT22;54117;53.532;49.426;2022-08-03T00:19:07;18.80;88.60
67188;DHT22;54117;53.532;49.426;2022-08-03T00:21:34;18.80;89.50
67188;DHT22;54117;53.532;49.426;2022-08-03T00:24:02;18.80;89.60
67188;DHT22;54117;53.532;49.426;2022-08-03T00:26:29;18.80;89.80
67188;DHT22;54117;53.532;49.426;2022-08-03T00:28:56;18.70;89.60
67188;DHT22;54117;53.532;49.426;2022-08-03T00:31:22;18.70;90.00
67188;DHT22;54117;53.532;49.426;2022-08-03T00:33:49;18.60;90.00
67188;DHT22;54117;53.532;49.426;2022-08-03T00:36:15;18.60;90.20
67188;DHT22;54117;53.532;49.426;2022-08-03T00:38:41;18.60;90.50
67188;DHT22;54117;53.532;49.426;2022-08-03T00:41:07;18.50;90.30
67188;DHT22;54117;53.532;49.426;2022-08-03T00:43:37;18.50;90.60
67188;DHT22;54117;53.532;49.426;2022-08-03T00:46:03;18.40;90.50
67188;DHT22;54117;53.532;49.426;2022-08-03T00:48:30;18.40;90.30
67188;DHT22;54117;53.532;49.426;2022-08-03T00:50:57;18.40;90.50
67188;DHT22;54117;53.532;49.426;2022-08-03T00:53:24;18.40;90.40
67188;DHT22;54117;53.532;49.426;2022-08-03T00:55:52;18.30;90.40
67188;DHT22;54117;53.532;49.426;2022-08-03T00:58:18;18.30;90.40
67188;DHT22;54117;53.532;49.426;2022-08-03T01:00:44;18.30;90.50
67188;DHT22;54117;53.532;49.426;2022-08-03T01:03:11;18.30;90.30
67188;DHT22;54117;53.532;49.426;2022-08-03T01:06:16;18.20;90.50
67188;DHT22;54117;53.532;49.426;2022-08-03T01:09:02;18.20;90.40
67188;DHT22;54117;53.532;49.426;2022-08-03T01:11:43;18.20;90.40
67188;DHT22;54117;53.532;49.426;2022-08-03T01:14:23;18.10;90.40
67188;DHT22;54117;53.532;49.426;2022-08-03T01:20:05;18.00;90.80
67188;DHT22;54117;53.532;49.426;2022-08-03T01:30:54;17.90;90.70
67188;DHT22;54117;53.532;49.426;2022-08-03T01:33:25;18.00;90.70
67188;DHT22;54117;53.532;49.426;2022-08-03T01:36:15;18.00;90.70
67188;DHT22;54117;53.532;49.426;2022-08-03T01:38:50;18.10;90.50
67188;DHT22;54117;53.532;49.426;2022-08-03T01:41:20;18.10;90.30
67188;DHT22;54117;53.532;49.426;2022-08-03T01:43:48;18.10;90.30
67188;DHT22;54117;53.532;49.426;2022-08-03T01:46:17;18.20;90.60
67188;DHT22;54117;53.532;49.426;2022-08-03T01:48:47;18.20;90.60
67188;DHT22;54117;53.532;49.426;2022-08-03T01:51:16;18.20;90.60
67188;DHT22;54117;53.532;49.426;2022-08-03T01:53:44;18.30;90.40
67188;DHT22;54117;53.532;49.426;2022-08-03T01:56:13;18.30;90.50
67188;DHT22;54117;53.532;49.426;2022-08-03T01:58:41;18.40;90.50
67188;DHT22;54117;53.532;49.426;2022-08-03T02:01:09;18.40;90.10
67188;DHT22;54117;53.532;49.426;2022-08-03T02:03:37;18.50;90.10
67188;DHT22;54117;53.532;49.426;2022-08-03T02:06:06;18.50;90.10
67188;DHT22;54117;53.532;49.426;2022-08-03T02:08:35;18.70;90.00
67188;DHT22;54117;53.532;49.426;2022-08-03T02:11:02;18.70;90.10
67188;DHT22;54117;53.532;49.426;2022-08-03T02:13:32;18.80;89.50
67188;DHT22;54117;53.532;49.426;2022-08-03T02:16:01;18.90;89.30
67188;DHT22;54117;53.532;49.426;2022-08-03T02:18:30;19.00;88.60
67188;DHT22;54117;53.532;49.426;2022-08-03T02:21:01;19.10;88.10
67188;DHT22;54117;53.532;49.426;2022-08-03T02:23:30;19.20;88.00
67188;DHT22;54117;53.532;49.426;2022-08-03T02:25:59;19.30;87.60
67188;DHT22;54117;53.532;49.426;2022-08-03T02:28:39;19.30;86.90
67188;DHT22;54117;53.532;49.426;2022-08-03T02:31:12;19.40;86.40
67188;DHT22;54117;53.532;49.426;2022-08-03T02:33:42;19.50;86.10
67188;DHT22;54117;53.532;49.426;2022-08-03T02:36:12;19.50;85.50
67188;DHT22;54117;53.532;49.426;2022-08-03T02:38:42;19.60;84.90
67188;DHT22;54117;53.532;49.426;2022-08-03T02:41:15;19.70;84.70
67188;DHT22;54117;53.532;49.426;2022-08-03T02:43:47;19.70;84.60
67188;DHT22;54117;53.532;49.426;2022-08-03T02:46:18;19.90;84.50
67188;DHT22;54117;53.532;49.426;2022-08-03T02:48:46;19.90;84.10
67188;DHT22;54117;53.532;49.426;2022-08-03T02:51:14;20.00;83.50
67188;DHT22;54117;53.532;49.426;2022-08-03T02:53:43;20.10;83.10
67188;DHT22;54117;53.532;49.426;2022-08-03T02:56:11;20.20;83.00
67188;DHT22;54117;53.532;49.426;2022-08-03T02:58:42;20.30;83.30
67188;DHT22;54117;53.532;49.426;2022-08-03T03:01:09;20.40;82.60
67188;DHT22;54117;53.532;49.426;2022-08-03T03:03:39;20.50;82.20
67188;DHT22;54117;53.532;49.426;2022-08-03T03:06:07;20.70;81.80
67188;DHT22;54117;53.532;49.426;2022-08-03T03:08:34;21.00;82.40
67188;DHT22;54117;53.532;49.426;2022-08-03T03:11:02;22.10;79.70
67188;DHT22;54117;53.532;49.426;2022-08-03T03:13:30;23.20;75.00
67188;DHT22;54117;53.532;49.426;2022-08-03T03:16:00;24.30;69.60
67188;DHT22;54117;53.532;49.426;2022-08-03T03:18:28;24.60;66.40
67188;DHT22;54117;53.532;49.426;2022-08-03T03:20:57;24.60;66.00
67188;DHT22;54117;53.532;49.426;2022-08-03T03:23:24;24.90;66.00
67188;DHT22;54117;53.532;49.426;2022-08-03T03:25:51;25.80;64.00
67188;DHT22;54117;53.532;49.426;2022-08-03T03:28:23;27.10;60.70
67188;DHT22;54117;53.532;49.426;2022-08-03T03:30:49;28.40;57.00
67188;DHT22;54117;53.532;49.426;2022-08-03T03:33:22;29.60;53.90
67188;DHT22;54117;53.532;49.426;2022-08-03T03:35:49;30.60;51.40
67188;DHT22;54117;53.532;49.426;2022-08-03T03:38:17;31.70;49.00
67188;DHT22;54117;53.532;49.426;2022-08-03T03:40:44;32.60;47.30
67188;DHT22;54117;53.532;49.426;2022-08-03T03:43:21;33.40;45.20
67188;DHT22;54117;53.532;49.426;2022-08-03T03:45:48;34.00;44.10
67188;DHT22;54117;53.532;49.426;2022-08-03T03:48:27;34.60;42.90
67188;DHT22;54117;53.532;49.426;2022-08-03T03:50:54;35.20;42.30
67188;DHT22;54117;53.532;49.426;2022-08-03T03:53:22;35.70;41.40
67188;DHT22;54117;53.532;49.426;2022-08-03T03:55:49;36.20;40.20
67188;DHT22;54117;53.532;49.426;2022-08-03T03:58:25;36.70;39.40
67188;DHT22;54117;53.532;49.426;2022-08-03T04:00:52;36.90;38.70
67188;DHT22;54117;53.532;49.426;2022-08-03T04:03:19;37.20;38.50
67188;DHT22;54117;53.532;49.426;2022-08-03T04:05:45;37.50;37.90
67188;DHT22;54117;53.532;49.426;2022-08-03T04:08:30;37.90;37.70
67188;DHT22;54117;53.532;49.426;2022-08-03T04:11:23;38.20;37.00
67188;DHT22;54117;53.532;49.426;2022-08-03T04:13:56;38.50;36.40
